Time;durP1;ratioP1;P1;durP2;ratioP2;P2;SDS_P1;SDS_P2;PMS_P1;PMS_P2;Temp;Humidity;BMP_temperature;BMP_pressure;BME280_temperature;BME280_humidity;BME280_pressure;Samples;Min_cycle;Max_cycle;Signal;HPM_P1;HPM_P2
2021/07/09 00:01:00;;;;;;;4.63;4.13;;;18.30;99.90;;;;;;10478311;28;20298;-78
2021/07/09 00:06:03;;;;;;;4.73;4.30;;;18.30;99.90;;;;;;10483092;28;20201;-78
2021/07/09 00:11:06;;;;;;;4.50;4.10;;;18.30;99.90;;;;;;10483197;28;20259;-79
2021/07/09 00:16:10;;;;;;;4.80;3.70;;;18.30;99.90;;;;;;10490989;28;20291;-79
2021/07/09 00:21:12;;;;;;;4.17;3.87;;;18.40;99.90;;;;;;10485653;28;20252;-78
2021/07/09 00:26:16;;;;;;;4.00;3.70;;;18.40;99.90;;;;;;10479589;28;20216;-78
2021/07/09 00:31:18;;;;;;;4.60;4.20;;;18.50;99.90;;;;;;10482595;28;20212;-78
2021/07/09 00:36:20;;;;;;;3.67;3.47;;;18.50;99.90;;;;;;10479228;28;20232;-79
2021/07/09 00:41:24;;;;;;;4.67;4.27;;;18.60;99.90;;;;;;10481902;28;20604;-79
2021/07/09 00:46:34;;;;;;;5.80;4.17;;;18.60;99.90;;;;;;10478247;28;20586;-79
2021/07/09 00:51:36;;;;;;;4.37;3.93;;;18.70;99.90;;;;;;10481175;28;20646;-79
2021/07/09 00:56:40;;;;;;;3.83;3.63;;;18.70;99.90;;;;;;10485597;28;20680;-79
2021/07/09 01:01:42;;;;;;;4.77;4.37;;;18.70;99.90;;;;;;10500204;28;20227;-79
2021/07/09 01:06:44;;;;;;;5.47;5.00;;;18.70;99.90;;;;;;10497053;28;20205;-78
2021/07/09 01:11:50;;;;;;;5.63;5.23;;;18.60;99.90;;;;;;10496655;28;20672;-77
2021/07/09 01:16:52;;;;;;;5.57;5.13;;;18.40;99.90;;;;;;10496614;28;20212;-78
2021/07/09 01:21:55;;;;;;;5.80;5.40;;;18.30;99.90;;;;;;10473099;28;20252;-77
2021/07/09 01:26:59;;;;;;;4.93;4.63;;;18.20;99.90;;;;;;10496335;28;20642;-78
2021/07/09 01:32:01;;;;;;;5.67;5.37;;;18.10;99.90;;;;;;10497546;28;20226;-77
2021/07/09 01:37:12;;;;;;;7.97;6.10;;;17.90;99.90;;;;;;10496882;28;20780;-78
2021/07/09 01:42:15;;;;;;;6.00;5.47;;;17.90;99.90;;;;;;10495284;28;20511;-78
2021/07/09 01:47:17;;;;;;;6.07;5.57;;;17.90;99.90;;;;;;10496404;28;20211;-79
2021/07/09 01:52:20;;;;;;;7.00;6.37;;;17.80;99.90;;;;;;10495480;28;20274;-79
2021/07/09 01:57:24;;;;;;;5.60;5.10;;;17.80;99.90;;;;;;10495872;28;20305;-79
2021/07/09 02:02:26;;;;;;;5.67;5.23;;;17.70;99.90;;;;;;10496343;28;20244;-78
2021/07/09 02:07:28;;;;;;;5.77;5.13;;;17.70;99.90;;;;;;10495044;28;20212;-78
2021/07/09 02:12:31;;;;;;;5.83;4.23;;;17.60;99.90;;;;;;10494243;28;20683;-78
2021/07/09 02:17:34;;;;;;;5.20;4.80;;;17.60;99.90;;;;;;10493952;28;20212;-79
2021/07/09 02:22:36;;;;;;;5.17;4.77;;;17.60;99.90;;;;;;10498105;28;20392;-78
2021/07/09 02:27:41;;;;;;;5.00;4.60;;;17.60;99.90;;;;;;10496059;28;20572;-79
2021/07/09 02:32:44;;;;;;;5.50;5.07;;;17.60;99.90;;;;;;10494835;28;20319;-78
2021/07/09 02:37:47;;;;;;;5.50;5.10;;;17.60;99.90;;;;;;10494773;28;20232;-77
2021/07/09 02:42:52;;;;;;;5.70;5.20;;;17.60;99.90;;;;;;10494512;28;20259;-78
2021/07/09 02:47:54;;;;;;;5.73;5.20;;;17.60;99.90;;;;;;10493269;28;20303;-79
2021/07/09 02:52:56;;;;;;;5.63;5.23;;;17.60;99.90;;;;;;10500360;28;20232;-79
2021/07/09 02:58:00;;;;;;;5.40;4.90;;;17.60;99.90;;;;;;10497774;28;20196;-78
2021/07/09 03:03:02;;;;;;;5.30;4.80;;;17.60;99.90;;;;;;10494518;28;20635;-78
2021/07/09 03:08:05;;;;;;;5.13;4.73;;;17.60;99.90;;;;;;10494793;28;20315;-78
2021/07/09 03:13:08;;;;;;;10.00;5.47;;;17.60;99.90;;;;;;10494513;28;20319;-79
2021/07/09 03:18:10;;;;;;;5.17;4.80;;;17.70;99.90;;;;;;10496297;28;20232;-78
2021/07/09 03:23:13;;;;;;;5.67;5.17;;;17.60;99.90;;;;;;10502824;28;20287;-78
2021/07/09 03:28:16;;;;;;;4.90;4.50;;;17.60;99.90;;;;;;10502988;28;20251;-79
2021/07/09 03:33:18;;;;;;;6.07;5.57;;;17.60;99.90;;;;;;10502385;28;20670;-78
2021/07/09 03:38:21;;;;;;;5.87;5.47;;;17.60;99.90;;;;;;10502535;28;20231;-78
2021/07/09 03:43:25;;;;;;;10.07;5.87;;;17.60;99.90;;;;;;10501813;28;20231;-79
2021/07/09 03:48:27;;;;;;;5.90;5.47;;;17.60;99.90;;;;;;10502397;28;20251;-79
2021/07/09 03:53:30;;;;;;;5.93;5.53;;;17.60;99.90;;;;;;10501664;28;20620;-79
2021/07/09 03:58:34;;;;;;;5.90;5.50;;;17.60;99.90;;;;;;10497414;28;20255;-78
2021/07/09 04:03:36;;;;;;;6.40;5.83;;;17.60;99.90;;;;;;10498130;28;20197;-79
2021/07/09 04:08:38;;;;;;;5.57;5.17;;;17.60;99.90;;;;;;10501712;28;20606;-78
2021/07/09 04:13:41;;;;;;;5.93;5.43;;;17.60;99.90;;;;;;10499202;28;20320;-79
2021/07/09 04:18:43;;;;;;;5.40;5.00;;;17.60;99.90;;;;;;10500253;28;20221;-79
2021/07/09 04:23:45;;;;;;;6.23;5.73;;;17.70;99.90;;;;;;10499150;28;20201;-79
2021/07/09 04:28:49;;;;;;;6.03;5.50;;;17.70;99.90;;;;;;10498091;28;20236;-78
2021/07/09 04:33:51;;;;;;;6.03;5.63;;;17.70;99.90;;;;;;10494768;28;20471;-78
2021/07/09 04:38:53;;;;;;;4.80;4.50;;;17.70;99.90;;;;;;10497058;28;20306;-79
2021/07/09 04:43:57;;;;;;;5.57;5.13;;;17.60;99.90;;;;;;10500360;28;20204;-78
2021/07/09 04:48:59;;;;;;;6.10;5.70;;;17.50;99.90;;;;;;10494385;28;20328;-79
2021/07/09 04:54:01;;;;;;;7.07;6.37;;;17.50;99.90;;;;;;10493447;28;20652;-79
2021/07/09 04:59:04;;;;;;;8.77;7.13;;;17.30;99.90;;;;;;10492759;28;20633;-78
2021/07/09 05:04:07;;;;;;;7.37;6.77;;;17.30;99.90;;;;;;10501157;28;20254;-79
2021/07/09 05:09:09;;;;;;;7.30;6.60;;;17.20;99.90;;;;;;10497980;28;20307;-79
2021/07/09 05:14:13;;;;;;;7.37;6.47;;;17.30;99.90;;;;;;10494685;28;20221;-79
2021/07/09 05:19:15;;;;;;;6.33;5.93;;;17.30;99.90;;;;;;10498910;28;20217;-79
2021/07/09 05:24:18;;;;;;;7.03;6.40;;;17.20;99.90;;;;;;10499495;28;20200;-79
2021/07/09 05:29:22;;;;;;;7.03;6.63;;;17.20;99.90;;;;;;10500752;28;20216;-79
2021/07/09 05:34:24;;;;;;;7.37;6.73;;;17.20;99.90;;;;;;10492347;28;20687;-79
2021/07/09 05:39:26;;;;;;;6.80;6.33;;;17.10;99.90;;;;;;10499163;28;20225;-79
2021/07/09 05:44:30;;;;;;;6.07;5.57;;;17.10;99.90;;;;;;10486005;28;20228;-79
2021/07/09 05:49:32;;;;;;;7.70;7.10;;;17.10;99.90;;;;;;10493861;28;20223;-79
2021/07/09 05:54:34;;;;;;;7.37;6.87;;;17.10;99.90;;;;;;10498501;28;20220;-79
2021/07/09 05:59:38;;;;;;;6.90;6.30;;;17.10;99.90;;;;;;10499968;28;20235;-79
2021/07/09 06:04:40;;;;;;;7.20;6.70;;;17.20;99.90;;;;;;10500273;28;20192;-79
2021/07/09 06:09:42;;;;;;;6.47;5.97;;;17.30;99.90;;;;;;10498401;28;20213;-79
2021/07/09 06:14:46;;;;;;;7.50;6.80;;;17.30;99.90;;;;;;10499274;28;20252;-79
2021/07/09 06:19:48;;;;;;;6.73;6.13;;;17.40;99.90;;;;;;10498316;28;20603;-79
2021/07/09 06:24:50;;;;;;;6.87;6.30;;;17.50;99.90;;;;;;10498354;28;20232;-79
2021/07/09 06:29:53;;;;;;;6.47;5.87;;;17.60;99.90;;;;;;10500366;28;20622;-79
2021/07/09 06:34:55;;;;;;;6.73;6.20;;;17.70;99.90;;;;;;10501156;28;20228;-79
2021/07/09 06:39:57;;;;;;;7.17;6.47;;;17.80;99.90;;;;;;10497379;28;20720;-79
2021/07/09 06:45:01;;;;;;;6.67;6.20;;;17.80;99.90;;;;;;10501234;28;20624;-79
2021/07/09 06:50:04;;;;;;;6.40;5.90;;;17.80;99.90;;;;;;10502791;28;20727;-79
2021/07/09 06:55:07;;;;;;;6.90;6.40;;;17.80;99.90;;;;;;10498207;28;20286;-79
2021/07/09 07:00:11;;;;;;;7.20;6.60;;;17.90;99.90;;;;;;10490351;28;20220;-79
2021/07/09 07:05:14;;;;;;;7.27;6.67;;;17.90;99.90;;;;;;10497476;28;20556;-79
2021/07/09 07:10:16;;;;;;;6.23;5.73;;;17.90;99.90;;;;;;10495745;28;20221;-79
2021/07/09 07:15:20;;;;;;;7.40;6.80;;;17.90;99.90;;;;;;10496066;28;20224;-79
2021/07/09 07:20:22;;;;;;;6.23;5.83;;;18.10;99.90;;;;;;10496798;28;20240;-79
2021/07/09 07:25:24;;;;;;;7.77;7.07;;;18.30;99.90;;;;;;10496654;28;20657;-79
2021/07/09 07:30:28;;;;;;;7.97;6.40;;;18.50;99.90;;;;;;10498954;28;20303;-79
2021/07/09 07:35:30;;;;;;;7.37;6.83;;;18.50;99.90;;;;;;10497009;28;20231;-79
2021/07/09 07:40:33;;;;;;;7.40;6.80;;;18.70;99.90;;;;;;10497469;28;20232;-79
2021/07/09 07:45:36;;;;;;;6.30;5.90;;;18.90;99.90;;;;;;10496220;28;20212;-79
2021/07/09 07:50:39;;;;;;;5.53;5.13;;;19.20;99.90;;;;;;10497874;28;20239;-79
2021/07/09 07:55:41;;;;;;;5.80;5.40;;;19.40;99.90;;;;;;10480089;28;20259;-79
2021/07/09 08:00:44;;;;;;;5.97;5.57;;;19.40;99.90;;;;;;10499611;28;20597;-79
2021/07/09 08:05:46;;;;;;;5.90;5.40;;;19.50;99.90;;;;;;10501808;28;20204;-79
2021/07/09 08:10:49;;;;;;;5.13;4.67;;;19.70;99.90;;;;;;10508448;28;20225;-79
2021/07/09 08:15:52;;;;;;;5.03;4.70;;;19.90;99.90;;;;;;10505450;28;20696;-79
2021/07/09 08:20:54;;;;;;;6.30;5.10;;;20.30;99.90;;;;;;10506947;28;20718;-79
2021/07/09 08:25:57;;;;;;;5.37;4.97;;;20.70;99.90;;;;;;10499791;28;20228;-79
2021/07/09 08:31:01;;;;;;;5.10;4.60;;;21.10;99.90;;;;;;10505893;28;20228;-79
2021/07/09 08:36:03;;;;;;;5.77;4.63;;;21.30;99.90;;;;;;10505377;28;20311;-79
2021/07/09 08:41:06;;;;;;;6.13;4.80;;;21.50;99.90;;;;;;10504516;28;20319;-80
2021/07/09 08:46:10;;;;;;;4.37;4.17;;;22.00;99.90;;;;;;10509255;28;20211;-79
2021/07/09 08:51:12;;;;;;;5.13;4.73;;;22.20;99.90;;;;;;10511978;28;20267;-80
2021/07/09 08:56:15;;;;;;;5.13;4.63;;;22.20;99.90;;;;;;10498372;28;20213;-79
2021/07/09 09:01:18;;;;;;;5.17;4.67;;;22.10;99.90;;;;;;10481488;28;20217;-80
2021/07/09 09:06:21;;;;;;;4.80;4.50;;;22.30;99.90;;;;;;10485615;28;20197;-79
2021/07/09 09:11:24;;;;;;;5.27;4.87;;;22.60;99.90;;;;;;10482187;28;20626;-80
2021/07/09 09:16:31;;;;;;;6.03;5.47;;;22.80;99.90;;;;;;10484933;28;20229;-80
2021/07/09 09:21:33;;;;;;;5.37;4.90;;;23.00;99.90;;;;;;10480946;28;20221;-80
2021/07/09 09:26:43;;;;;;;6.50;4.40;;;23.10;99.90;;;;;;10484933;28;20192;-80
2021/07/09 09:31:53;;;;;;;5.33;4.83;;;23.20;99.90;;;;;;10484197;28;20220;-79
2021/07/09 09:37:00;;;;;;;5.00;4.50;;;23.20;99.90;;;;;;10481445;28;20225;-80
2021/07/09 09:42:17;;;;;;;5.23;4.83;;;23.20;99.90;;;;;;10480973;28;20227;-79
2021/07/09 09:47:23;;;;;;;5.63;5.10;;;23.10;99.90;;;;;;10479532;28;20642;-79
2021/07/09 09:52:36;;;;;;;5.20;4.70;;;23.10;99.90;;;;;;10479967;28;20324;-80
2021/07/09 09:57:39;;;;;;;5.87;5.40;;;23.00;99.90;;;;;;10480652;28;20228;-79
2021/07/09 10:02:44;;;;;;;5.77;5.20;;;22.90;99.90;;;;;;10495941;28;20235;-80
2021/07/09 10:07:47;;;;;;;5.00;4.60;;;23.10;99.90;;;;;;10502273;28;20274;-80
2021/07/09 10:12:51;;;;;;;5.63;4.70;;;23.60;99.90;;;;;;10500667;28;20707;-80
2021/07/09 10:17:55;;;;;;;5.57;5.07;;;23.80;99.90;;;;;;10501896;28;20771;-80
2021/07/09 10:22:59;;;;;;;5.30;4.90;;;24.00;99.90;;;;;;10502304;28;20386;-80
2021/07/09 10:28:06;;;;;;;7.20;5.03;;;24.70;99.90;;;;;;10502452;28;20236;-80
2021/07/09 10:33:32;;;;;;;5.60;5.20;;;25.40;99.90;;;;;;10503247;28;20220;-80
2021/07/09 10:38:38;;;;;;;5.00;4.50;;;25.60;99.90;;;;;;10501079;28;20231;-80
2021/07/09 10:43:41;;;;;;;6.13;5.37;;;25.30;99.90;;;;;;10506214;28;20303;-80
2021/07/09 10:48:44;;;;;;;7.80;7.20;;;24.90;99.90;;;;;;10499298;28;20232;-79
2021/07/09 10:53:46;;;;;;;8.43;7.63;;;24.70;99.90;;;;;;10500193;28;20224;-80
2021/07/09 10:59:00;;;;;;;7.73;7.13;;;24.70;99.90;;;;;;10501125;28;20778;-80
2021/07/09 11:04:14;;;;;;;8.00;7.40;;;24.80;99.90;;;;;;10501526;28;20185;-80
2021/07/09 11:09:16;;;;;;;7.53;7.00;;;24.60;99.90;;;;;;10506376;28;20293;-80
2021/07/09 11:14:20;;;;;;;8.90;8.17;;;24.30;99.90;;;;;;10496208;28;20228;-80
2021/07/09 11:19:30;;;;;;;8.60;6.50;;;24.00;99.90;;;;;;10492631;28;20221;-80
2021/07/09 11:24:35;;;;;;;10.83;7.43;;;23.70;99.90;;;;;;10497884;28;20770;-80
2021/07/09 11:29:40;;;;;;;8.80;7.63;;;23.60;99.90;;;;;;10496276;28;20469;-80
2021/07/09 11:34:45;;;;;;;9.23;7.97;;;23.50;99.90;;;;;;10495673;28;20688;-79
2021/07/09 11:40:32;;;;;;;8.63;7.90;;;23.40;99.90;;;;;;10529303;22;20684;-81
2021/07/09 11:45:35;;;;;;;10.70;9.37;;;23.20;99.90;;;;;;10511736;28;20667;-81
2021/07/09 11:50:39;;;;;;;8.50;7.90;;;23.20;99.90;;;;;;10526695;28;20602;-80
2021/07/09 11:55:41;;;;;;;10.17;9.10;;;23.30;99.90;;;;;;10541656;28;20228;-80
2021/07/09 12:00:43;;;;;;;10.00;9.20;;;23.30;99.90;;;;;;10539906;28;20647;-80
2021/07/09 12:05:48;;;;;;;10.67;9.77;;;23.20;99.90;;;;;;10509402;28;20204;-81
2021/07/09 12:10:50;;;;;;;9.90;8.90;;;23.00;99.90;;;;;;10522947;28;20274;-83
2021/07/09 12:15:52;;;;;;;10.87;9.40;;;22.90;99.90;;;;;;10505747;28;20223;-80
2021/07/09 12:20:55;;;;;;;9.33;8.53;;;23.00;99.90;;;;;;10543703;28;20231;-81
2021/07/09 12:25:58;;;;;;;11.10;10.10;;;22.90;99.90;;;;;;10525979;28;20204;-83
2021/07/09 12:31:03;;;;;;;10.30;9.50;;;22.90;99.90;;;;;;10542060;28;20715;-81
2021/07/09 12:36:08;;;;;;;11.80;10.80;;;23.10;99.90;;;;;;10519262;28;20319;-82
2021/07/09 12:41:11;;;;;;;9.27;8.47;;;23.20;99.90;;;;;;10534875;28;20707;-81
2021/07/09 12:46:17;;;;;;;9.43;8.73;;;23.40;99.90;;;;;;10541968;28;20283;-82
2021/07/09 12:51:23;;;;;;;8.40;7.70;;;23.60;99.90;;;;;;10532723;28;20224;-82
2021/07/09 12:56:28;;;;;;;7.17;6.50;;;23.50;99.90;;;;;;10535620;28;20687;-82
2021/07/09 13:01:31;;;;;;;7.47;6.97;;;23.30;99.90;;;;;;10531726;28;20319;-83
2021/07/09 13:06:34;;;;;;;6.00;5.40;;;23.20;99.90;;;;;;10525613;28;20217;-81
2021/07/09 13:11:39;;;;;;;5.43;5.13;;;23.00;99.90;;;;;;10537137;28;20654;-81
2021/07/09 13:16:53;;;;;;;5.53;5.13;;;23.00;99.90;;;;;;10530637;28;20303;-83
2021/07/09 13:21:57;;;;;;;6.23;5.73;;;23.00;99.90;;;;;;10507138;28;20315;-80
2021/07/09 13:26:59;;;;;;;5.00;4.60;;;23.10;99.90;;;;;;10544035;28;20202;-82
2021/07/09 13:32:03;;;;;;;6.47;4.90;;;23.20;99.90;;;;;;10552902;28;20302;-81
2021/07/09 13:37:14;;;;;;;6.17;5.63;;;23.30;99.90;;;;;;10551209;28;20215;-81
2021/07/09 13:42:17;;;;;;;4.83;4.43;;;23.50;99.90;;;;;;10523714;28;20627;-81
2021/07/09 13:47:19;;;;;;;5.67;5.27;;;23.80;99.90;;;;;;10522378;28;20245;-81
2021/07/09 13:52:22;;;;;;;6.50;5.90;;;24.00;99.90;;;;;;10533795;28;20251;-81
2021/07/09 13:57:25;;;;;;;6.60;6.10;;;24.20;99.90;;;;;;10493256;28;20281;-81
2021/07/09 14:02:27;;;;;;;5.90;5.50;;;24.20;99.90;;;;;;10495467;28;20311;-83
2021/07/09 14:07:30;;;;;;;4.93;4.53;;;24.30;99.90;;;;;;10502249;28;20634;-81
2021/07/09 14:12:35;;;;;;;5.60;3.50;;;24.30;99.90;;;;;;10532874;28;20259;-81
2021/07/09 14:17:37;;;;;;;4.10;3.80;;;24.10;99.90;;;;;;10543186;28;20224;-81
2021/07/09 14:22:40;;;;;;;4.77;4.37;;;24.10;99.90;;;;;;10542303;28;20285;-81
2021/07/09 14:27:43;;;;;;;5.10;4.70;;;24.00;99.90;;;;;;10539667;28;20207;-81
2021/07/09 14:32:46;;;;;;;5.20;4.80;;;23.80;99.90;;;;;;10537766;28;20285;-80
2021/07/09 14:37:49;;;;;;;4.73;4.20;;;23.70;99.60;;;;;;10535243;28;20246;-82
2021/07/09 14:42:52;;;;;;;4.40;4.07;;;23.60;99.90;;;;;;10538635;28;20231;-82
2021/07/09 14:47:54;;;;;;;4.47;4.17;;;23.60;99.90;;;;;;10515274;28;20224;-83
2021/07/09 14:52:58;;;;;;;5.20;4.80;;;23.70;99.90;;;;;;10533966;28;20247;-83
2021/07/09 14:58:00;;;;;;;5.87;5.47;;;23.70;99.60;;;;;;10548615;28;20234;-82
2021/07/09 15:03:02;;;;;;;4.77;4.47;;;23.70;99.10;;;;;;10545027;28;20235;-81
2021/07/09 15:08:06;;;;;;;5.40;5.10;;;23.60;99.90;;;;;;10554990;28;20709;-81
2021/07/09 15:13:08;;;;;;;4.90;4.50;;;23.60;99.90;;;;;;10534339;28;20257;-81
2021/07/09 15:18:10;;;;;;;4.83;4.53;;;23.60;99.90;;;;;;10560730;28;20306;-81
2021/07/09 15:23:14;;;;;;;5.33;4.90;;;23.50;99.90;;;;;;10563573;28;20231;-82
2021/07/09 15:28:18;;;;;;;4.90;4.60;;;23.30;99.90;;;;;;10561324;28;20690;-82
2021/07/09 15:33:20;;;;;;;4.40;4.03;;;23.10;99.90;;;;;;10555414;28;20319;-82
2021/07/09 15:38:24;;;;;;;4.30;3.60;;;23.00;99.90;;;;;;10548432;28;20239;-82
2021/07/09 15:43:26;;;;;;;3.57;3.40;;;22.90;99.80;;;;;;10548950;28;20647;-83
2021/07/09 15:48:28;;;;;;;4.00;3.70;;;23.00;99.90;;;;;;10552163;28;20203;-83
2021/07/09 15:53:32;;;;;;;4.13;3.93;;;23.00;99.90;;;;;;10554165;28;20204;-83
2021/07/09 15:58:34;;;;;;;4.40;4.10;;;22.90;99.90;;;;;;10536303;28;20272;-82
2021/07/09 16:03:36;;;;;;;4.40;4.10;;;22.80;99.90;;;;;;10537259;28;20208;-83
2021/07/09 16:08:40;;;;;;;4.73;4.33;;;22.80;99.90;;;;;;10529610;28;20208;-82
2021/07/09 16:13:42;;;;;;;4.40;4.00;;;22.90;99.90;;;;;;10559010;28;20261;-81
2021/07/09 16:18:44;;;;;;;4.43;4.03;;;22.80;99.90;;;;;;10533559;28;20231;-81
2021/07/09 16:23:47;;;;;;;4.20;3.90;;;22.80;99.90;;;;;;10538560;28;20200;-81
2021/07/09 16:28:50;;;;;;;4.73;4.00;;;22.80;99.90;;;;;;10541108;28;20242;-81
2021/07/09 16:33:52;;;;;;;4.27;3.97;;;22.80;99.90;;;;;;10529218;28;20216;-82
2021/07/09 16:38:55;;;;;;;4.93;4.30;;;22.80;99.90;;;;;;10543193;28;20726;-83
2021/07/09 16:43:59;;;;;;;6.53;6.03;;;22.90;99.90;;;;;;10545233;28;20200;-81
2021/07/09 16:49:01;;;;;;;7.10;6.47;;;22.90;99.90;;;;;;10548886;28;20269;-81
2021/07/09 16:54:04;;;;;;;6.57;6.17;;;22.80;99.90;;;;;;10547818;28;20319;-82
2021/07/09 16:59:07;;;;;;;4.90;4.60;;;22.80;99.90;;;;;;10546840;28;20247;-83
2021/07/09 17:04:09;;;;;;;4.90;4.60;;;22.60;99.90;;;;;;10548758;28;20199;-83
2021/07/09 17:09:12;;;;;;;4.60;4.30;;;22.50;99.90;;;;;;10532668;28;20253;-83
2021/07/09 17:14:14;;;;;;;4.60;4.30;;;22.20;99.80;;;;;;10510031;28;20256;-82
2021/07/09 17:19:17;;;;;;;5.37;4.20;;;22.00;99.90;;;;;;10502766;28;20247;-82
2021/07/09 17:24:20;;;;;;;4.67;4.30;;;21.80;99.50;;;;;;10520835;28;20298;-81
2021/07/09 17:29:23;;;;;;;4.77;4.47;;;21.60;99.20;;;;;;10548417;28;20618;-82
2021/07/09 17:34:25;;;;;;;6.83;5.70;;;21.50;98.70;;;;;;10541456;28;20657;-81
2021/07/09 17:39:28;;;;;;;6.13;5.63;;;21.30;99.90;;;;;;10550244;22;20326;-78
2021/07/09 17:44:31;;;;;;;5.23;4.80;;;21.20;99.90;;;;;;10565794;28;20677;-78
2021/07/09 17:49:33;;;;;;;4.53;4.10;;;21.10;99.90;;;;;;10585240;28;20254;-78
2021/07/09 17:54:37;;;;;;;5.93;5.50;;;21.00;99.90;;;;;;10584949;28;20215;-78
2021/07/09 17:59:39;;;;;;;4.80;4.50;;;21.00;99.90;;;;;;10579538;28;20227;-79
2021/07/09 18:04:41;;;;;;;5.70;5.20;;;20.90;99.90;;;;;;10584971;28;20199;-79
2021/07/09 18:09:44;;;;;;;6.00;5.60;;;20.90;99.90;;;;;;10582474;28;20246;-78
2021/07/09 18:14:47;;;;;;;6.43;6.00;;;20.90;99.90;;;;;;10577465;28;20251;-78
2021/07/09 18:19:49;;;;;;;6.47;6.00;;;20.90;99.90;;;;;;10567854;28;20314;-79
2021/07/09 18:24:52;;;;;;;6.67;6.17;;;20.90;99.90;;;;;;10586077;28;20219;-79
2021/07/09 18:29:55;;;;;;;7.47;6.67;;;20.90;99.90;;;;;;10583785;28;20233;-78
2021/07/09 18:34:57;;;;;;;6.97;6.43;;;20.90;99.90;;;;;;10584744;28;20215;-80
2021/07/09 18:40:01;;;;;;;6.57;6.07;;;20.90;99.90;;;;;;10577046;28;20237;-81
2021/07/09 18:45:03;;;;;;;6.83;6.33;;;21.00;99.90;;;;;;10582929;28;20203;-81
2021/07/09 18:50:06;;;;;;;6.70;6.00;;;20.90;99.90;;;;;;10595080;28;20237;-81
2021/07/09 18:55:10;;;;;;;6.10;5.60;;;20.90;99.90;;;;;;10590740;28;20326;-81
2021/07/09 19:00:14;;;;;;;6.87;6.37;;;20.90;99.90;;;;;;10596853;28;20686;-81
2021/07/09 19:05:18;;;;;;;6.37;5.87;;;20.90;99.90;;;;;;10576042;28;20658;-81
2021/07/09 19:10:22;;;;;;;6.90;6.40;;;20.80;99.90;;;;;;10579046;28;20262;-81
2021/07/09 19:15:24;;;;;;;7.20;6.57;;;20.80;99.90;;;;;;10583758;28;20222;-81
2021/07/09 19:20:28;;;;;;;7.60;6.90;;;20.80;99.90;;;;;;10565186;28;20247;-81
2021/07/09 19:25:31;;;;;;;6.43;5.93;;;20.70;99.90;;;;;;10582974;28;20219;-81
2021/07/09 19:30:36;;;;;;;6.57;6.00;;;20.70;99.90;;;;;;10580386;28;20234;-81
2021/07/09 19:35:38;;;;;;;6.00;5.50;;;20.60;99.90;;;;;;10582489;28;20222;-81
2021/07/09 19:40:41;;;;;;;8.87;8.27;;;20.50;99.90;;;;;;10564975;28;20227;-81
2021/07/09 19:45:44;;;;;;;9.07;8.37;;;20.30;99.90;;;;;;10539677;28;20203;-81
2021/07/09 19:50:46;;;;;;;8.63;7.93;;;20.10;99.90;;;;;;10542632;28;20220;-81
2021/07/09 19:55:50;;;;;;;9.07;8.20;;;20.00;99.90;;;;;;10542149;28;20216;-81
2021/07/09 20:00:52;;;;;;;8.07;7.40;;;19.80;99.90;;;;;;10541707;28;20246;-81
2021/07/09 20:05:55;;;;;;;7.90;7.20;;;19.70;99.90;;;;;;10548580;28;20196;-81
2021/07/09 20:10:58;;;;;;;8.27;7.67;;;19.50;99.90;;;;;;10552569;28;20339;-81
2021/07/09 20:16:00;;;;;;;8.60;7.80;;;19.40;99.90;;;;;;10548742;28;20586;-81
2021/07/09 20:21:02;;;;;;;8.47;7.77;;;19.30;99.90;;;;;;10549958;28;20513;-80
2021/07/09 20:26:07;;;;;;;8.23;7.57;;;19.20;99.90;;;;;;10547837;28;20188;-81
2021/07/09 20:31:09;;;;;;;10.43;9.40;;;19.10;99.90;;;;;;10549125;28;20222;-81
2021/07/09 20:36:11;;;;;;;10.60;9.80;;;19.00;99.90;;;;;;10549682;28;20234;-81
2021/07/09 20:41:16;;;;;;;9.97;9.17;;;19.00;99.90;;;;;;10550431;28;20318;-81
2021/07/09 20:46:18;;;;;;;10.20;9.30;;;18.90;99.90;;;;;;10558653;28;20180;-80
2021/07/09 20:51:20;;;;;;;8.30;7.70;;;18.90;99.90;;;;;;10529872;28;20295;-81
2021/07/09 20:56:24;;;;;;;10.63;9.63;;;18.90;99.90;;;;;;10545159;28;20632;-81
2021/07/09 21:01:26;;;;;;;10.27;9.37;;;18.80;99.90;;;;;;10544966;28;20222;-81
2021/07/09 21:06:28;;;;;;;9.63;8.70;;;18.70;99.90;;;;;;10547798;28;20207;-81
2021/07/09 21:11:32;;;;;;;12.10;11.10;;;18.70;99.90;;;;;;10546203;28;20287;-80
2021/07/09 21:16:34;;;;;;;10.90;10.00;;;18.60;99.90;;;;;;10547361;28;20228;-81
2021/07/09 21:21:36;;;;;;;13.03;10.43;;;18.60;99.90;;;;;;10543681;28;20219;-81
2021/07/09 21:26:39;;;;;;;9.10;8.30;;;18.60;99.90;;;;;;10541675;28;20271;-81
2021/07/09 21:31:41;;;;;;;11.13;10.13;;;18.60;99.90;;;;;;10543690;28;20208;-81
2021/07/09 21:36:44;;;;;;;13.27;11.97;;;18.60;99.90;;;;;;10526297;28;20212;-81
2021/07/09 21:41:47;;;;;;;15.17;13.70;;;18.60;99.90;;;;;;10542498;28;20231;-81
2021/07/09 21:46:49;;;;;;;12.10;11.00;;;18.50;99.90;;;;;;10545724;28;20202;-81
2021/07/09 21:51:51;;;;;;;10.80;9.90;;;18.50;99.90;;;;;;10544854;28;20243;-81
2021/07/09 21:56:55;;;;;;;11.33;10.33;;;18.50;99.90;;;;;;10544773;28;20295;-81
2021/07/09 22:01:57;;;;;;;10.93;10.03;;;18.50;99.90;;;;;;10544707;28;20292;-81
2021/07/09 22:06:59;;;;;;;10.80;10.00;;;18.50;99.90;;;;;;10526428;28;20223;-81
2021/07/09 22:12:02;;;;;;;11.47;10.27;;;18.50;99.90;;;;;;10544277;28;20219;-81
2021/07/09 22:17:05;;;;;;;10.17;9.27;;;18.60;99.90;;;;;;10544007;28;20289;-81
2021/07/09 22:22:07;;;;;;;11.40;9.90;;;18.60;99.90;;;;;;10543357;28;20294;-81
2021/07/09 22:27:10;;;;;;;11.50;10.60;;;18.60;99.90;;;;;;10542304;28;20239;-81
2021/07/09 22:32:12;;;;;;;11.30;10.50;;;18.50;99.90;;;;;;10542936;28;20208;-81
2021/07/09 22:37:16;;;;;;;11.67;10.57;;;18.40;99.90;;;;;;10543488;28;20648;-81
2021/07/09 22:42:20;;;;;;;10.30;9.50;;;18.40;99.90;;;;;;10554086;28;20258;-80
2021/07/09 22:47:22;;;;;;;9.90;9.03;;;18.30;99.90;;;;;;10543965;28;20291;-80
2021/07/09 22:52:25;;;;;;;10.00;9.20;;;18.40;99.90;;;;;;10543885;28;20254;-81
2021/07/09 22:57:28;;;;;;;10.97;10.07;;;18.40;99.90;;;;;;10540163;28;20315;-81
2021/07/09 23:02:30;;;;;;;10.17;9.37;;;18.40;99.90;;;;;;10537000;28;20227;-81
2021/07/09 23:07:32;;;;;;;9.97;9.13;;;18.40;99.90;;;;;;10539349;28;20216;-81
2021/07/09 23:12:36;;;;;;;9.40;8.60;;;18.40;99.90;;;;;;10520228;28;20312;-81
2021/07/09 23:17:42;;;;;;;11.00;9.03;;;18.30;99.90;;;;;;10540238;28;20247;-81
2021/07/09 23:22:44;;;;;;;10.17;9.17;;;18.20;99.90;;;;;;10540403;28;20211;-81
2021/07/09 23:27:47;;;;;;;9.90;9.10;;;18.20;99.90;;;;;;10521565;28;20192;-80
2021/07/09 23:32:52;;;;;;;9.40;8.60;;;18.20;99.90;;;;;;10544362;28;20280;-81
2021/07/09 23:37:54;;;;;;;9.83;9.13;;;18.20;99.90;;;;;;10546905;28;20220;-81
2021/07/09 23:42:58;;;;;;;9.50;8.60;;;18.20;99.90;;;;;;10558170;22;20235;-82
2021/07/09 23:48:00;;;;;;;9.97;9.17;;;18.20;99.90;;;;;;10523672;28;20203;-82
2021/07/09 23:53:02;;;;;;;9.90;9.10;;;18.10;99.90;;;;;;10501495;28;20223;-81
2021/07/09 23:58:06;;;;;;;9.97;9.17;;;18.00;99.90;;;;;;10503314;28;20680;-82
